sensor_id;sensor_type;location;lat;lon;timestamp;temperature;humidity
15959;DHT22;8078;47.822;9.402;2023-02-28T00:00:20;-4.20;99.90
15959;DHT22;8078;47.822;9.402;2023-02-28T00:02:46;-4.20;99.90
15959;DHT22;8078;47.822;9.402;2023-02-28T00:05:14;-4.20;99.90
15959;DHT22;8078;47.822;9.402;2023-02-28T00:07:40;-4.20;99.90
15959;DHT22;8078;47.822;9.402;2023-02-28T00:10:09;-4.20;99.90
15959;DHT22;8078;47.822;9.402;2023-02-28T00:12:36;-4.20;99.90
15959;DHT22;8078;47.822;9.402;2023-02-28T00:15:06;-4.20;99.90
15959;DHT22;8078;47.822;9.402;2023-02-28T00:17:32;-4.10;99.90
15959;DHT22;8078;47.822;9.402;2023-02-28T00:19:57;-4.20;99.90
15959;DHT22;8078;47.822;9.402;2023-02-28T00:22:36;-4.10;99.90
15959;DHT22;8078;47.822;9.402;2023-02-28T00:25:03;-4.10;99.90
15959;DHT22;8078;47.822;9.402;2023-02-28T00:27:29;-4.20;99.90
15959;DHT22;8078;47.822;9.402;2023-02-28T00:29:55;-4.10;99.90
15959;DHT22;8078;47.822;9.402;2023-02-28T00:32:20;-4.10;99.90
15959;DHT22;8078;47.822;9.402;2023-02-28T00:34:46;-4.20;99.90
15959;DHT22;8078;47.822;9.402;2023-02-28T00:37:11;-4.10;99.90
15959;DHT22;8078;47.822;9.402;2023-02-28T00:39:38;-4.10;99.90
15959;DHT22;8078;47.822;9.402;2023-02-28T00:42:04;-4.10;99.90
15959;DHT22;8078;47.822;9.402;2023-02-28T00:44:30;-4.20;99.90
15959;DHT22;8078;47.822;9.402;2023-02-28T00:46:56;-4.20;99.90
15959;DHT22;8078;47.822;9.402;2023-02-28T00:49:23;-4.20;99.90
15959;DHT22;8078;47.822;9.402;2023-02-28T00:51:49;-4.20;99.90
15959;DHT22;8078;47.822;9.402;2023-02-28T00:54:15;-4.20;99.90
15959;DHT22;8078;47.822;9.402;2023-02-28T00:56:41;-4.20;99.90
15959;DHT22;8078;47.822;9.402;2023-02-28T00:59:06;-4.20;99.90
15959;DHT22;8078;47.822;9.402;2023-02-28T01:01:32;-4.20;99.90
15959;DHT22;8078;47.822;9.402;2023-02-28T01:03:58;-4.20;99.90
15959;DHT22;8078;47.822;9.402;2023-02-28T01:06:23;-4.20;99.90
15959;DHT22;8078;47.822;9.402;2023-02-28T01:08:49;-4.20;99.90
15959;DHT22;8078;47.822;9.402;2023-02-28T01:11:16;-4.20;99.90
15959;DHT22;8078;47.822;9.402;2023-02-28T01:13:43;-4.20;99.90
15959;DHT22;8078;47.822;9.402;2023-02-28T01:16:09;-4.20;99.90
15959;DHT22;8078;47.822;9.402;2023-02-28T01:18:35;-4.20;99.90
15959;DHT22;8078;47.822;9.402;2023-02-28T01:21:05;-4.20;99.90
15959;DHT22;8078;47.822;9.402;2023-02-28T01:23:31;-4.20;99.90
15959;DHT22;8078;47.822;9.402;2023-02-28T01:25:57;-4.20;99.90
15959;DHT22;8078;47.822;9.402;2023-02-28T01:28:23;-4.20;99.90
15959;DHT22;8078;47.822;9.402;2023-02-28T01:30:50;-4.20;99.90
15959;DHT22;8078;47.822;9.402;2023-02-28T01:33:15;-4.20;99.90
15959;DHT22;8078;47.822;9.402;2023-02-28T01:35:41;-4.20;99.90
15959;DHT22;8078;47.822;9.402;2023-02-28T01:38:06;-4.20;99.90
15959;DHT22;8078;47.822;9.402;2023-02-28T01:40:32;-4.20;99.90
15959;DHT22;8078;47.822;9.402;2023-02-28T01:42:58;-4.20;99.90
15959;DHT22;8078;47.822;9.402;2023-02-28T01:45:28;-4.20;99.90
15959;DHT22;8078;47.822;9.402;2023-02-28T01:47:59;-4.20;99.90
15959;DHT22;8078;47.822;9.402;2023-02-28T01:50:29;-4.30;99.90
15959;DHT22;8078;47.822;9.402;2023-02-28T01:52:59;-4.30;99.90
15959;DHT22;8078;47.822;9.402;2023-02-28T01:55:27;-4.30;99.90
15959;DHT22;8078;47.822;9.402;2023-02-28T01:57:57;-4.20;99.90
15959;DHT22;8078;47.822;9.402;2023-02-28T02:00:25;-4.30;99.90
15959;DHT22;8078;47.822;9.402;2023-02-28T02:02:55;-4.30;99.90
15959;DHT22;8078;47.822;9.402;2023-02-28T02:05:24;-4.20;99.90
15959;DHT22;8078;47.822;9.402;2023-02-28T02:07:54;-4.30;99.90
15959;DHT22;8078;47.822;9.402;2023-02-28T02:10:24;-4.30;99.90
15959;DHT22;8078;47.822;9.402;2023-02-28T02:16:20;-4.30;99.90
15959;DHT22;8078;47.822;9.402;2023-02-28T02:19:02;-4.20;99.90
15959;DHT22;8078;47.822;9.402;2023-02-28T02:21:48;-4.20;99.90
15959;DHT22;8078;47.822;9.402;2023-02-28T02:27:17;-4.20;99.90
15959;DHT22;8078;47.822;9.402;2023-02-28T02:38:11;-4.20;99.90
15959;DHT22;8078;47.822;9.402;2023-02-28T02:43:35;-4.20;99.90
15959;DHT22;8078;47.822;9.402;2023-02-28T02:46:06;-4.20;99.90
15959;DHT22;8078;47.822;9.402;2023-02-28T02:48:34;-4.20;99.90
15959;DHT22;8078;47.822;9.402;2023-02-28T02:51:07;-4.20;99.90
15959;DHT22;8078;47.822;9.402;2023-02-28T02:54:02;-4.20;99.90
15959;DHT22;8078;47.822;9.402;2023-02-28T02:56:32;-4.20;99.90
15959;DHT22;8078;47.822;9.402;2023-02-28T02:59:03;-4.20;99.90
15959;DHT22;8078;47.822;9.402;2023-02-28T03:01:31;-4.20;99.90
15959;DHT22;8078;47.822;9.402;2023-02-28T03:03:59;-4.20;99.90
15959;DHT22;8078;47.822;9.402;2023-02-28T03:06:26;-4.20;99.90
15959;DHT22;8078;47.822;9.402;2023-02-28T03:08:51;-4.20;99.90
15959;DHT22;8078;47.822;9.402;2023-02-28T03:11:17;-4.20;99.90
15959;DHT22;8078;47.822;9.402;2023-02-28T03:13:54;-4.20;99.90
15959;DHT22;8078;47.822;9.402;2023-02-28T03:19:41;-4.20;99.90
15959;DHT22;8078;47.822;9.402;2023-02-28T03:27:41;-4.20;99.90
15959;DHT22;8078;47.822;9.402;2023-02-28T03:30:11;-4.20;99.90
15959;DHT22;8078;47.822;9.402;2023-02-28T03:32:44;-4.20;99.90
15959;DHT22;8078;47.822;9.402;2023-02-28T03:35:20;-4.20;99.90
15959;DHT22;8078;47.822;9.402;2023-02-28T03:38:03;-4.20;99.90
15959;DHT22;8078;47.822;9.402;2023-02-28T03:40:32;-4.20;99.90
15959;DHT22;8078;47.822;9.402;2023-02-28T03:43:07;-4.30;99.90
15959;DHT22;8078;47.822;9.402;2023-02-28T03:45:37;-4.30;99.90
15959;DHT22;8078;47.822;9.402;2023-02-28T03:48:24;-4.20;99.90
15959;DHT22;8078;47.822;9.402;2023-02-28T03:50:54;-4.30;99.90
15959;DHT22;8078;47.822;9.402;2023-02-28T03:53:36;-4.20;99.90
15959;DHT22;8078;47.822;9.402;2023-02-28T03:56:13;-4.30;99.90
15959;DHT22;8078;47.822;9.402;2023-02-28T03:59:04;-4.20;99.90
15959;DHT22;8078;47.822;9.402;2023-02-28T04:01:43;-4.20;99.90
15959;DHT22;8078;47.822;9.402;2023-02-28T04:04:11;-4.20;99.90
15959;DHT22;8078;47.822;9.402;2023-02-28T04:06:37;-4.20;99.90
15959;DHT22;8078;47.822;9.402;2023-02-28T04:09:05;-4.20;99.90
15959;DHT22;8078;47.822;9.402;2023-02-28T04:11:45;-4.20;99.90
15959;DHT22;8078;47.822;9.402;2023-02-28T04:14:11;-4.20;99.90
15959;DHT22;8078;47.822;9.402;2023-02-28T04:16:39;-4.20;99.90
15959;DHT22;8078;47.822;9.402;2023-02-28T04:19:06;-4.30;99.90
15959;DHT22;8078;47.822;9.402;2023-02-28T04:21:34;-4.30;99.90
15959;DHT22;8078;47.822;9.402;2023-02-28T04:24:00;-4.30;99.90
15959;DHT22;8078;47.822;9.402;2023-02-28T04:26:33;-4.30;99.90
15959;DHT22;8078;47.822;9.402;2023-02-28T04:29:00;-4.30;99.90
15959;DHT22;8078;47.822;9.402;2023-02-28T04:31:26;-4.30;99.90
15959;DHT22;8078;47.822;9.402;2023-02-28T04:33:51;-4.30;99.90
15959;DHT22;8078;47.822;9.402;2023-02-28T04:36:17;-4.30;99.90
15959;DHT22;8078;47.822;9.402;2023-02-28T04:38:43;-4.30;99.90
15959;DHT22;8078;47.822;9.402;2023-02-28T04:41:09;-4.30;99.90
15959;DHT22;8078;47.822;9.402;2023-02-28T04:43:35;-4.30;99.90
15959;DHT22;8078;47.822;9.402;2023-02-28T04:46:02;-4.30;99.90
15959;DHT22;8078;47.822;9.402;2023-02-28T04:48:30;-4.30;99.90
15959;DHT22;8078;47.822;9.402;2023-02-28T04:51:04;-4.30;99.90
15959;DHT22;8078;47.822;9.402;2023-02-28T04:53:30;-4.30;99.90
15959;DHT22;8078;47.822;9.402;2023-02-28T04:55:56;-4.30;99.90
15959;DHT22;8078;47.822;9.402;2023-02-28T04:58:22;-4.40;99.90
15959;DHT22;8078;47.822;9.402;2023-02-28T05:00:54;-4.30;99.90
15959;DHT22;8078;47.822;9.402;2023-02-28T05:03:26;-4.40;99.90
15959;DHT22;8078;47.822;9.402;2023-02-28T05:05:51;-4.30;99.90
15959;DHT22;8078;47.822;9.402;2023-02-28T05:08:17;-4.30;99.90
15959;DHT22;8078;47.822;9.402;2023-02-28T05:10:42;-4.40;99.90
15959;DHT22;8078;47.822;9.402;2023-02-28T05:13:13;-4.40;99.90
15959;DHT22;8078;47.822;9.402;2023-02-28T05:15:38;-4.30;99.90
15959;DHT22;8078;47.822;9.402;2023-02-28T05:18:04;-4.40;99.90
15959;DHT22;8078;47.822;9.402;2023-02-28T05:20:30;-4.30;99.90
15959;DHT22;8078;47.822;9.402;2023-02-28T05:22:57;-4.30;99.90
15959;DHT22;8078;47.822;9.402;2023-02-28T05:25:23;-4.30;99.90
15959;DHT22;8078;47.822;9.402;2023-02-28T05:27:49;-4.40;99.90
15959;DHT22;8078;47.822;9.402;2023-02-28T05:30:15;-4.40;99.90
15959;DHT22;8078;47.822;9.402;2023-02-28T05:32:41;-4.30;99.90
15959;DHT22;8078;47.822;9.402;2023-02-28T05:35:10;-4.40;99.90
15959;DHT22;8078;47.822;9.402;2023-02-28T05:37:37;-4.40;99.90
15959;DHT22;8078;47.822;9.402;2023-02-28T05:40:04;-4.40;99.90
15959;DHT22;8078;47.822;9.402;2023-02-28T05:42:31;-4.30;99.90
15959;DHT22;8078;47.822;9.402;2023-02-28T05:44:57;-4.40;99.90
15959;DHT22;8078;47.822;9.402;2023-02-28T05:47:22;-4.40;99.90
15959;DHT22;8078;47.822;9.402;2023-02-28T05:49:48;-4.40;99.90
15959;DHT22;8078;47.822;9.402;2023-02-28T05:52:13;-4.40;99.90
15959;DHT22;8078;47.822;9.402;2023-02-28T05:54:39;-4.40;99.90
15959;DHT22;8078;47.822;9.402;2023-02-28T05:57:04;-4.40;99.90
15959;DHT22;8078;47.822;9.402;2023-02-28T05:59:30;-4.40;99.90
15959;DHT22;8078;47.822;9.402;2023-02-28T06:01:56;-4.40;99.90
15959;DHT22;8078;47.822;9.402;2023-02-28T06:04:21;-4.40;99.90
15959;DHT22;8078;47.822;9.402;2023-02-28T06:06:48;-4.40;99.90
15959;DHT22;8078;47.822;9.402;2023-02-28T06:09:14;-4.50;99.90
15959;DHT22;8078;47.822;9.402;2023-02-28T06:11:40;-4.40;99.90
15959;DHT22;8078;47.822;9.402;2023-02-28T06:14:06;-4.40;99.90
15959;DHT22;8078;47.822;9.402;2023-02-28T06:16:33;-4.50;99.90
15959;DHT22;8078;47.822;9.402;2023-02-28T06:19:02;-4.50;99.90
15959;DHT22;8078;47.822;9.402;2023-02-28T06:21:28;-4.50;99.90
15959;DHT22;8078;47.822;9.402;2023-02-28T06:23:56;-4.50;99.90
15959;DHT22;8078;47.822;9.402;2023-02-28T06:26:21;-4.50;99.90
15959;DHT22;8078;47.822;9.402;2023-02-28T06:28:47;-4.50;99.90
15959;DHT22;8078;47.822;9.402;2023-02-28T06:31:16;-4.50;99.90
15959;DHT22;8078;47.822;9.402;2023-02-28T06:33:44;-4.50;99.90
15959;DHT22;8078;47.822;9.402;2023-02-28T06:36:11;-4.40;99.90
15959;DHT22;8078;47.822;9.402;2023-02-28T06:38:37;-4.40;99.90
15959;DHT22;8078;47.822;9.402;2023-02-28T06:41:04;-4.40;99.90
15959;DHT22;8078;47.822;9.402;2023-02-28T06:43:33;-4.40;99.90
15959;DHT22;8078;47.822;9.402;2023-02-28T06:46:01;-4.40;99.90
15959;DHT22;8078;47.822;9.402;2023-02-28T06:48:27;-4.40;99.90
15959;DHT22;8078;47.822;9.402;2023-02-28T06:51:03;-4.40;99.90
15959;DHT22;8078;47.822;9.402;2023-02-28T06:53:29;-4.40;99.90
15959;DHT22;8078;47.822;9.402;2023-02-28T06:55:54;-4.40;99.90
15959;DHT22;8078;47.822;9.402;2023-02-28T06:58:20;-4.30;99.90
15959;DHT22;8078;47.822;9.402;2023-02-28T07:00:49;-4.30;99.90
15959;DHT22;8078;47.822;9.402;2023-02-28T07:03:15;-4.30;99.90
15959;DHT22;8078;47.822;9.402;2023-02-28T07:05:41;-4.30;99.90
15959;DHT22;8078;47.822;9.402;2023-02-28T07:08:06;-4.30;99.90
15959;DHT22;8078;47.822;9.402;2023-02-28T07:10:33;-4.40;99.90
15959;DHT22;8078;47.822;9.402;2023-02-28T07:12:59;-4.30;99.90
15959;DHT22;8078;47.822;9.402;2023-02-28T07:15:25;-4.30;99.90
15959;DHT22;8078;47.822;9.402;2023-02-28T07:17:50;-4.20;99.90
15959;DHT22;8078;47.822;9.402;2023-02-28T07:20:16;-4.20;99.90
15959;DHT22;8078;47.822;9.402;2023-02-28T07:22:42;-4.20;99.90
15959;DHT22;8078;47.822;9.402;2023-02-28T07:25:08;-4.20;99.90
15959;DHT22;8078;47.822;9.402;2023-02-28T07:27:34;-4.20;99.90
15959;DHT22;8078;47.822;9.402;2023-02-28T07:29:59;-4.20;99.90
15959;DHT22;8078;47.822;9.402;2023-02-28T07:32:27;-4.10;99.90
15959;DHT22;8078;47.822;9.402;2023-02-28T07:34:53;-4.00;99.90
15959;DHT22;8078;47.822;9.402;2023-02-28T07:37:18;-4.00;99.90
15959;DHT22;8078;47.822;9.402;2023-02-28T07:39:44;-3.90;99.90
15959;DHT22;8078;47.822;9.402;2023-02-28T07:42:09;-3.90;99.90
15959;DHT22;8078;47.822;9.402;2023-02-28T07:44:38;-3.80;99.90
15959;DHT22;8078;47.822;9.402;2023-02-28T07:47:09;-3.90;99.90
15959;DHT22;8078;47.822;9.402;2023-02-28T07:49:37;-3.80;99.90
15959;DHT22;8078;47.822;9.402;2023-02-28T07:52:05;-3.80;99.90
15959;DHT22;8078;47.822;9.402;2023-02-28T07:54:30;-3.80;99.90
15959;DHT22;8078;47.822;9.402;2023-02-28T07:56:56;-3.80;99.90
15959;DHT22;8078;47.822;9.402;2023-02-28T07:59:22;-3.80;99.90
15959;DHT22;8078;47.822;9.402;2023-02-28T08:01:47;-3.70;99.90
15959;DHT22;8078;47.822;9.402;2023-02-28T08:04:16;-3.70;99.90
15959;DHT22;8078;47.822;9.402;2023-02-28T08:06:41;-3.80;99.90
15959;DHT22;8078;47.822;9.402;2023-02-28T08:09:07;-3.70;99.90
15959;DHT22;8078;47.822;9.402;2023-02-28T08:11:33;-3.60;99.90
15959;DHT22;8078;47.822;9.402;2023-02-28T08:13:58;-3.60;99.90
15959;DHT22;8078;47.822;9.402;2023-02-28T08:16:24;-3.70;99.90
15959;DHT22;8078;47.822;9.402;2023-02-28T08:18:51;-3.70;99.90
15959;DHT22;8078;47.822;9.402;2023-02-28T08:21:17;-3.60;99.90
15959;DHT22;8078;47.822;9.402;2023-02-28T08:23:42;-3.60;99.90
15959;DHT22;8078;47.822;9.402;2023-02-28T08:26:08;-3.60;99.90
15959;DHT22;8078;47.822;9.402;2023-02-28T08:28:33;-3.50;99.90
15959;DHT22;8078;47.822;9.402;2023-02-28T08:30:59;-3.60;99.90
15959;DHT22;8078;47.822;9.402;2023-02-28T08:33:26;-3.40;99.90
15959;DHT22;8078;47.822;9.402;2023-02-28T08:35:56;-3.30;99.90
15959;DHT22;8078;47.822;9.402;2023-02-28T08:38:22;-3.40;99.90
15959;DHT22;8078;47.822;9.402;2023-02-28T08:40:48;-3.30;99.90
15959;DHT22;8078;47.822;9.402;2023-02-28T08:43:14;-3.10;99.90
15959;DHT22;8078;47.822;9.402;2023-02-28T08:45:39;-3.00;99.90
15959;DHT22;8078;47.822;9.402;2023-02-28T08:48:05;-3.00;99.90
15959;DHT22;8078;47.822;9.402;2023-02-28T08:50:31;-3.00;99.90
15959;DHT22;8078;47.822;9.402;2023-02-28T08:52:56;-2.90;99.90
15959;DHT22;8078;47.822;9.402;2023-02-28T08:55:22;-3.00;99.90
15959;DHT22;8078;47.822;9.402;2023-02-28T08:57:47;-3.10;99.90
15959;DHT22;8078;47.822;9.402;2023-02-28T09:00:13;-3.10;99.90
15959;DHT22;8078;47.822;9.402;2023-02-28T09:02:40;-3.10;99.90
15959;DHT22;8078;47.822;9.402;2023-02-28T09:05:06;-3.10;99.90
15959;DHT22;8078;47.822;9.402;2023-02-28T09:07:33;-3.00;99.90
15959;DHT22;8078;47.822;9.402;2023-02-28T09:09:58;-3.10;99.90
15959;DHT22;8078;47.822;9.402;2023-02-28T09:12:25;-3.00;99.90
15959;DHT22;8078;47.822;9.402;2023-02-28T09:14:51;-3.00;99.90
15959;DHT22;8078;47.822;9.402;2023-02-28T09:17:17;-2.80;99.90
15959;DHT22;8078;47.822;9.402;2023-02-28T09:19:43;-2.70;99.90
15959;DHT22;8078;47.822;9.402;2023-02-28T09:22:10;-2.60;99.90
15959;DHT22;8078;47.822;9.402;2023-02-28T09:24:37;-2.70;99.90
15959;DHT22;8078;47.822;9.402;2023-02-28T09:27:03;-2.60;99.90
15959;DHT22;8078;47.822;9.402;2023-02-28T09:29:29;-2.40;99.90
15959;DHT22;8078;47.822;9.402;2023-02-28T09:31:55;-2.40;99.90
15959;DHT22;8078;47.822;9.402;2023-02-28T09:34:24;-2.50;99.90
15959;DHT22;8078;47.822;9.402;2023-02-28T09:36:49;-2.40;99.90
15959;DHT22;8078;47.822;9.402;2023-02-28T09:39:20;-2.30;99.90
15959;DHT22;8078;47.822;9.402;2023-02-28T09:41:49;-2.10;99.90
15959;DHT22;8078;47.822;9.402;2023-02-28T09:46:57;-2.00;99.90
15959;DHT22;8078;47.822;9.402;2023-02-28T09:49:31;-1.90;99.90
15959;DHT22;8078;47.822;9.402;2023-02-28T09:52:10;-1.90;99.90
15959;DHT22;8078;47.822;9.402;2023-02-28T09:54:37;-1.70;99.90
15959;DHT22;8078;47.822;9.402;2023-02-28T09:57:09;-1.70;99.90
15959;DHT22;8078;47.822;9.402;2023-02-28T09:59:56;-1.70;99.90
15959;DHT22;8078;47.822;9.402;2023-02-28T10:04:58;-1.50;99.90
15959;DHT22;8078;47.822;9.402;2023-02-28T10:10:29;-1.30;99.90
15959;DHT22;8078;47.822;9.402;2023-02-28T10:13:00;-1.10;99.90
15959;DHT22;8078;47.822;9.402;2023-02-28T10:15:30;-1.40;99.90
15959;DHT22;8078;47.822;9.402;2023-02-28T10:18:05;-1.50;99.90
15959;DHT22;8078;47.822;9.402;2023-02-28T10:20:38;-1.70;99.90
15959;DHT22;8078;47.822;9.402;2023-02-28T10:23:10;-1.80;99.90
15959;DHT22;8078;47.822;9.402;2023-02-28T10:25:38;-1.80;99.90
15959;DHT22;8078;47.822;9.402;2023-02-28T10:28:12;-1.70;99.90
15959;DHT22;8078;47.822;9.402;2023-02-28T10:30:45;-1.80;99.90
15959;DHT22;8078;47.822;9.402;2023-02-28T10:33:19;-1.60;99.90
15959;DHT22;8078;47.822;9.402;2023-02-28T10:35:46;-1.70;99.90
15959;DHT22;8078;47.822;9.402;2023-02-28T10:38:22;-1.60;99.90
15959;DHT22;8078;47.822;9.402;2023-02-28T10:40:47;-1.30;99.90
15959;DHT22;8078;47.822;9.402;2023-02-28T10:45:39;-1.00;99.90
15959;DHT22;8078;47.822;9.402;2023-02-28T10:55:43;-0.80;99.90
15959;DHT22;8078;47.822;9.402;2023-02-28T10:58:25;-0.70;99.90
15959;DHT22;8078;47.822;9.402;2023-02-28T11:00:52;-0.70;99.90
15959;DHT22;8078;47.822;9.402;2023-02-28T11:03:32;-0.80;99.90
15959;DHT22;8078;47.822;9.402;2023-02-28T11:06:03;-0.80;99.90
15959;DHT22;8078;47.822;9.402;2023-02-28T11:08:29;-0.50;99.90
15959;DHT22;8078;47.822;9.402;2023-02-28T11:10:57;-0.70;99.90
15959;DHT22;8078;47.822;9.402;2023-02-28T11:13:35;-0.60;99.90
15959;DHT22;8078;47.822;9.402;2023-02-28T11:16:07;-0.70;99.90
15959;DHT22;8078;47.822;9.402;2023-02-28T11:18:55;-0.70;99.90
15959;DHT22;8078;47.822;9.402;2023-02-28T11:21:33;-0.70;99.90
15959;DHT22;8078;47.822;9.402;2023-02-28T11:24:12;-0.70;99.90
15959;DHT22;8078;47.822;9.402;2023-02-28T11:26:46;-0.70;99.90
15959;DHT22;8078;47.822;9.402;2023-02-28T11:29:30;-0.60;99.90
15959;DHT22;8078;47.822;9.402;2023-02-28T11:32:05;-0.30;99.90
15959;DHT22;8078;47.822;9.402;2023-02-28T11:34:36;-0.20;99.90
15959;DHT22;8078;47.822;9.402;2023-02-28T11:37:03;-0.40;99.90
15959;DHT22;8078;47.822;9.402;2023-02-28T11:39:32;-0.60;99.90
15959;DHT22;8078;47.822;9.402;2023-02-28T11:50:35;-0.60;99.90
15959;DHT22;8078;47.822;9.402;2023-02-28T11:53:32;-0.80;99.90
15959;DHT22;8078;47.822;9.402;2023-02-28T12:04:25;-0.80;99.90
15959;DHT22;8078;47.822;9.402;2023-02-28T12:07:31;-0.70;99.90
15959;DHT22;8078;47.822;9.402;2023-02-28T12:18:04;-0.30;99.90
15959;DHT22;8078;47.822;9.402;2023-02-28T12:21:04;-0.30;99.90
15959;DHT22;8078;47.822;9.402;2023-02-28T12:26:31;-0.30;99.90
15959;DHT22;8078;47.822;9.402;2023-02-28T12:29:23;-0.30;99.90
15959;DHT22;8078;47.822;9.402;2023-02-28T12:31:58;-0.40;99.90
15959;DHT22;8078;47.822;9.402;2023-02-28T12:34:31;-0.40;99.90
15959;DHT22;8078;47.822;9.402;2023-02-28T12:37:02;-0.60;99.90
15959;DHT22;8078;47.822;9.402;2023-02-28T12:39:34;-0.30;99.90
15959;DHT22;8078;47.822;9.402;2023-02-28T12:42:01;-0.20;99.90
15959;DHT22;8078;47.822;9.402;2023-02-28T12:44:40;-0.30;99.90
15959;DHT22;8078;47.822;9.402;2023-02-28T12:47:14;-0.50;99.90
15959;DHT22;8078;47.822;9.402;2023-02-28T12:49:59;-0.70;99.90
15959;DHT22;8078;47.822;9.402;2023-02-28T13:00:42;-0.60;99.90
15959;DHT22;8078;47.822;9.402;2023-02-28T13:03:38;-0.50;99.90
15959;DHT22;8078;47.822;9.402;2023-02-28T13:06:24;-0.70;99.90
15959;DHT22;8078;47.822;9.402;2023-02-28T13:09:09;-0.70;99.90
15959;DHT22;8078;47.822;9.402;2023-02-28T13:14:23;-0.80;99.90
15959;DHT22;8078;47.822;9.402;2023-02-28T13:19:43;-0.80;99.90
15959;DHT22;8078;47.822;9.402;2023-02-28T13:24:51;-0.80;99.90
15959;DHT22;8078;47.822;9.402;2023-02-28T13:27:36;-0.80;99.90
15959;DHT22;8078;47.822;9.402;2023-02-28T13:35:46;-1.00;99.90
15959;DHT22;8078;47.822;9.402;2023-02-28T13:38:24;-1.10;99.90
15959;DHT22;8078;47.822;9.402;2023-02-28T13:40:54;-1.10;99.90
15959;DHT22;8078;47.822;9.402;2023-02-28T13:43:21;-1.20;99.90
15959;DHT22;8078;47.822;9.402;2023-02-28T13:46:12;-1.00;99.90
15959;DHT22;8078;47.822;9.402;2023-02-28T13:48:38;-1.00;99.90
15959;DHT22;8078;47.822;9.402;2023-02-28T13:51:28;-1.00;99.90
15959;DHT22;8078;47.822;9.402;2023-02-28T13:54:04;-1.10;99.90
15959;DHT22;8078;47.822;9.402;2023-02-28T13:56:40;-1.00;99.90
15959;DHT22;8078;47.822;9.402;2023-02-28T13:59:36;-1.00;99.90
15959;DHT22;8078;47.822;9.402;2023-02-28T14:02:29;-1.00;99.90
15959;DHT22;8078;47.822;9.402;2023-02-28T14:05:15;-0.90;99.90
15959;DHT22;8078;47.822;9.402;2023-02-28T14:07:50;-0.80;99.90
15959;DHT22;8078;47.822;9.402;2023-02-28T14:10:23;-0.80;99.90
15959;DHT22;8078;47.822;9.402;2023-02-28T14:13:00;-0.90;99.90
15959;DHT22;8078;47.822;9.402;2023-02-28T14:15:48;-1.00;99.90
15959;DHT22;8078;47.822;9.402;2023-02-28T14:18:24;-1.10;99.90
15959;DHT22;8078;47.822;9.402;2023-02-28T14:21:08;-0.60;99.90
15959;DHT22;8078;47.822;9.402;2023-02-28T14:26:32;1.30;99.90
15959;DHT22;8078;47.822;9.402;2023-02-28T14:29:17;2.00;99.90
15959;DHT22;8078;47.822;9.402;2023-02-28T14:32:15;2.50;99.90
15959;DHT22;8078;47.822;9.402;2023-02-28T14:34:54;2.80;99.90
15959;DHT22;8078;47.822;9.402;2023-02-28T14:37:30;2.60;99.90
15959;DHT22;8078;47.822;9.402;2023-02-28T14:39:57;2.80;99.90
15959;DHT22;8078;47.822;9.402;2023-02-28T14:42:35;2.90;99.90
15959;DHT22;8078;47.822;9.402;2023-02-28T14:45:03;2.60;99.90
15959;DHT22;8078;47.822;9.402;2023-02-28T14:47:33;2.50;99.90
15959;DHT22;8078;47.822;9.402;2023-02-28T14:50:01;2.40;99.90
15959;DHT22;8078;47.822;9.402;2023-02-28T14:52:31;2.60;99.90
15959;DHT22;8078;47.822;9.402;2023-02-28T14:55:04;2.80;99.90
15959;DHT22;8078;47.822;9.402;2023-02-28T14:57:33;2.90;99.90
15959;DHT22;8078;47.822;9.402;2023-02-28T15:00:20;3.00;99.90
15959;DHT22;8078;47.822;9.402;2023-02-28T15:02:46;3.00;99.90
15959;DHT22;8078;47.822;9.402;2023-02-28T15:07:38;2.90;99.90
15959;DHT22;8078;47.822;9.402;2023-02-28T15:10:21;2.10;99.90
15959;DHT22;8078;47.822;9.402;2023-02-28T15:13:04;1.80;99.90
15959;DHT22;8078;47.822;9.402;2023-02-28T15:15:47;2.30;99.90
15959;DHT22;8078;47.822;9.402;2023-02-28T15:20:48;3.20;99.90
15959;DHT22;8078;47.822;9.402;2023-02-28T15:23:15;3.50;99.90
15959;DHT22;8078;47.822;9.402;2023-02-28T15:25:41;3.50;99.90
15959;DHT22;8078;47.822;9.402;2023-02-28T15:28:14;3.80;99.90
15959;DHT22;8078;47.822;9.402;2023-02-28T15:30:52;4.00;99.90
15959;DHT22;8078;47.822;9.402;2023-02-28T15:33:21;3.90;99.90
15959;DHT22;8078;47.822;9.402;2023-02-28T15:35:47;3.90;99.90
15959;DHT22;8078;47.822;9.402;2023-02-28T15:38:25;4.00;99.90
15959;DHT22;8078;47.822;9.402;2023-02-28T15:40:54;3.90;99.90
15959;DHT22;8078;47.822;9.402;2023-02-28T15:43:30;4.00;99.90
15959;DHT22;8078;47.822;9.402;2023-02-28T15:46:02;4.30;99.90
15959;DHT22;8078;47.822;9.402;2023-02-28T15:48:35;4.40;99.90
15959;DHT22;8078;47.822;9.402;2023-02-28T15:51:14;4.20;99.90
15959;DHT22;8078;47.822;9.402;2023-02-28T15:53:51;3.40;99.90
15959;DHT22;8078;47.822;9.402;2023-02-28T15:59:01;2.70;99.90
15959;DHT22;8078;47.822;9.402;2023-02-28T16:01:29;2.20;99.90
15959;DHT22;8078;47.822;9.402;2023-02-28T16:04:15;1.80;99.90
15959;DHT22;8078;47.822;9.402;2023-02-28T16:06:47;1.40;99.90
15959;DHT22;8078;47.822;9.402;2023-02-28T16:09:25;1.50;99.90
15959;DHT22;8078;47.822;9.402;2023-02-28T16:11:54;1.50;99.90
15959;DHT22;8078;47.822;9.402;2023-02-28T16:14:27;1.70;99.90
15959;DHT22;8078;47.822;9.402;2023-02-28T16:16:57;1.80;99.90
15959;DHT22;8078;47.822;9.402;2023-02-28T16:19:27;1.80;99.90
15959;DHT22;8078;47.822;9.402;2023-02-28T16:21:52;1.60;99.90
15959;DHT22;8078;47.822;9.402;2023-02-28T16:24:18;1.10;99.90
15959;DHT22;8078;47.822;9.402;2023-02-28T16:26:46;0.40;99.90
15959;DHT22;8078;47.822;9.402;2023-02-28T16:29:33;-0.20;99.90
15959;DHT22;8078;47.822;9.402;2023-02-28T16:32:00;-0.60;99.90
15959;DHT22;8078;47.822;9.402;2023-02-28T16:34:27;-1.00;99.90
15959;DHT22;8078;47.822;9.402;2023-02-28T16:36:53;-1.20;99.90
15959;DHT22;8078;47.822;9.402;2023-02-28T16:39:18;-1.40;99.90
15959;DHT22;8078;47.822;9.402;2023-02-28T16:41:47;-1.60;99.90
15959;DHT22;8078;47.822;9.402;2023-02-28T16:44:34;-1.70;99.90
15959;DHT22;8078;47.822;9.402;2023-02-28T16:47:01;-1.80;99.90
15959;DHT22;8078;47.822;9.402;2023-02-28T16:49:27;-1.90;99.90
15959;DHT22;8078;47.822;9.402;2023-02-28T16:51:53;-2.00;99.90
15959;DHT22;8078;47.822;9.402;2023-02-28T16:54:18;-2.00;99.90
15959;DHT22;8078;47.822;9.402;2023-02-28T16:56:48;-2.10;99.90
15959;DHT22;8078;47.822;9.402;2023-02-28T16:59:17;-2.20;99.90
15959;DHT22;8078;47.822;9.402;2023-02-28T17:01:43;-2.20;99.90
15959;DHT22;8078;47.822;9.402;2023-02-28T17:04:11;-2.30;99.90
15959;DHT22;8078;47.822;9.402;2023-02-28T17:06:37;-2.40;99.90
15959;DHT22;8078;47.822;9.402;2023-02-28T17:09:02;-2.40;99.90
15959;DHT22;8078;47.822;9.402;2023-02-28T17:11:28;-2.50;99.90
15959;DHT22;8078;47.822;9.402;2023-02-28T17:13:53;-2.50;99.90
15959;DHT22;8078;47.822;9.402;2023-02-28T17:16:23;-2.50;99.90
15959;DHT22;8078;47.822;9.402;2023-02-28T17:18:50;-2.60;99.90
15959;DHT22;8078;47.822;9.402;2023-02-28T17:21:17;-2.60;99.90
15959;DHT22;8078;47.822;9.402;2023-02-28T17:23:43;-2.60;99.90
15959;DHT22;8078;47.822;9.402;2023-02-28T17:26:16;-2.70;99.90
15959;DHT22;8078;47.822;9.402;2023-02-28T17:28:43;-2.70;99.90
15959;DHT22;8078;47.822;9.402;2023-02-28T17:31:09;-2.80;99.90
15959;DHT22;8078;47.822;9.402;2023-02-28T17:33:34;-2.80;99.90
15959;DHT22;8078;47.822;9.402;2023-02-28T17:36:00;-2.80;99.90
15959;DHT22;8078;47.822;9.402;2023-02-28T17:38:26;-2.90;99.90
15959;DHT22;8078;47.822;9.402;2023-02-28T17:40:52;-2.90;99.90
15959;DHT22;8078;47.822;9.402;2023-02-28T17:43:23;-2.90;99.90
15959;DHT22;8078;47.822;9.402;2023-02-28T17:45:48;-2.90;99.90
15959;DHT22;8078;47.822;9.402;2023-02-28T17:48:14;-2.80;99.90
15959;DHT22;8078;47.822;9.402;2023-02-28T17:50:40;-2.90;99.90